Time;durP1;ratioP1;P1;durP2;ratioP2;P2;SDS_P1;SDS_P2;PMS_P1;PMS_P2;Temp;Humidity;BMP_temperature;BMP_pressure;BME280_temperature;BME280_humidity;BME280_pressure;Samples;Min_cycle;Max_cycle;Signal;HPM_P1;HPM_P2
2021/09/02 00:01:09;;;;;;;11.90;5.33;;;;;;;14.56;78.66;98864.39;1666100;85;21154;-67
2021/09/02 00:03:36;;;;;;;7.78;5.08;;;;;;;14.52;78.76;98857.38;1661367;85;21058;-69
2021/09/02 00:06:03;;;;;;;11.60;4.65;;;;;;;14.52;78.84;98860.16;1664838;85;21047;-66
2021/09/02 00:08:31;;;;;;;8.03;5.05;;;;;;;14.48;79.06;98864.23;1663965;85;21631;-67
2021/09/02 00:10:58;;;;;;;14.15;5.97;;;;;;;14.47;78.93;98863.20;1663631;85;21592;-68
2021/09/02 00:13:25;;;;;;;7.80;4.42;;;;;;;14.43;78.71;98865.12;1663196;85;21432;-70
2021/09/02 00:15:53;;;;;;;8.38;5.20;;;;;;;14.39;78.81;98863.65;1663441;85;21023;-67
2021/09/02 00:18:24;;;;;;;8.10;4.92;;;;;;;14.33;78.56;98873.42;1663649;85;21579;-69
2021/09/02 00:20:58;;;;;;;6.70;4.47;;;;;;;14.25;78.85;98865.51;1656067;85;21027;-67
2021/09/02 00:23:24;;;;;;;9.65;4.33;;;;;;;14.22;79.08;98874.55;1642174;85;21052;-67
2021/09/02 00:25:51;;;;;;;7.75;4.87;;;;;;;14.20;79.36;98871.33;1666317;85;21489;-66
2021/09/02 00:28:20;;;;;;;6.55;4.15;;;;;;;14.18;79.52;98866.72;1643998;85;21008;-68
2021/09/02 00:30:46;;;;;;;9.30;4.17;;;;;;;14.19;79.69;98872.50;1646063;85;21413;-70
2021/09/02 00:33:17;;;;;;;6.30;4.25;;;;;;;14.19;79.68;98872.50;1664468;85;21099;-69
2021/09/02 00:35:46;;;;;;;5.97;3.92;;;;;;;14.20;79.70;98875.48;1703020;82;21070;-70
2021/09/02 00:38:14;;;;;;;6.03;4.40;;;;;;;14.20;79.64;98872.71;1733110;81;21063;-67
2021/09/02 00:40:41;;;;;;;10.75;4.85;;;;;;;14.20;79.55;98875.48;1728285;82;21030;-69
2021/09/02 00:43:08;;;;;;;7.90;4.97;;;;;;;14.19;79.62;98873.89;1731451;81;21023;-69
2021/09/02 00:45:35;;;;;;;5.65;4.20;;;;;;;14.18;79.79;98875.03;1728806;82;21023;-70
2021/09/02 00:48:01;;;;;;;7.58;4.05;;;;;;;14.15;79.69;98881.30;1727976;82;21055;-69
2021/09/02 00:50:29;;;;;;;6.85;4.37;;;;;;;14.11;79.71;98873.71;1729499;82;21862;-67
2021/09/02 00:52:58;;;;;;;6.62;4.28;;;;;;;14.10;79.78;98881.81;1729834;82;21056;-66
2021/09/02 00:55:24;;;;;;;6.90;4.70;;;;;;;14.08;79.83;98876.39;1728225;82;21520;-66
2021/09/02 00:57:52;;;;;;;7.47;4.22;;;;;;;14.08;79.97;98880.55;1730296;82;21098;-69
2021/09/02 01:00:19;;;;;;;11.43;4.03;;;;;;;14.05;80.06;98880.70;1728546;82;21051;-68
2021/09/02 01:02:50;;;;;;;6.05;4.17;;;;;;;13.99;80.23;98882.93;1729295;81;21511;-69
2021/09/02 01:05:20;;;;;;;6.97;4.53;;;;;;;13.97;80.33;98876.16;1728379;82;21054;-68
2021/09/02 01:07:47;;;;;;;6.75;4.40;;;;;;;13.95;80.48;98876.52;1730989;82;21019;-68
2021/09/02 01:10:14;;;;;;;6.65;3.80;;;;;;;13.93;80.58;98877.45;1730907;82;21534;-69
2021/09/02 01:12:45;;;;;;;5.65;4.33;;;;;;;13.91;80.68;98878.38;1725590;82;21156;-68
2021/09/02 01:15:16;;;;;;;7.87;4.95;;;;;;;13.92;80.73;98875.05;1643719;86;21043;-66
2021/09/02 01:17:44;;;;;;;7.55;4.53;;;;;;;13.91;80.78;98883.92;1665819;85;21079;-68
2021/09/02 01:20:21;;;;;;;13.55;5.20;;;;;;;13.87;80.88;98883.02;1731815;80;21023;-69
2021/09/02 01:22:49;;;;;;;9.78;4.50;;;;;;;13.84;81.00;98887.32;1730894;82;21023;-65
2021/09/02 01:25:19;;;;;;;7.85;5.12;;;;;;;13.82;81.22;98890.20;1730896;82;21046;-68
2021/09/02 01:27:50;;;;;;;8.03;4.42;;;;;;;13.79;81.36;98886.77;1698951;82;22127;-71
2021/09/02 01:30:16;;;;;;;9.63;4.05;;;;;;;13.79;81.56;98888.16;1716051;82;21007;-69
2021/09/02 01:32:46;;;;;;;9.78;3.70;;;;;;;13.80;81.59;98886.41;1725822;82;21554;-69
2021/09/02 01:35:13;;;;;;;6.83;3.92;;;;;;;13.75;81.53;98882.53;1729562;82;21068;-68
2021/09/02 01:37:51;;;;;;;8.83;5.12;;;;;;;13.72;81.87;98877.71;1670384;84;21040;-66
2021/09/02 01:40:25;;;;;;;7.50;4.53;;;;;;;13.71;81.92;98881.66;1726203;82;21125;-69
2021/09/02 01:42:51;;;;;;;7.40;4.83;;;;;;;13.70;82.04;98880.06;1685181;84;21075;-67
2021/09/02 01:45:19;;;;;;;7.62;4.42;;;;;;;13.70;82.12;98875.91;1731553;82;21054;-65
2021/09/02 01:47:46;;;;;;;7.97;4.87;;;;;;;13.71;82.20;98876.11;1705142;82;21008;-68
2021/09/02 01:50:23;;;;;;;5.53;4.40;;;;;;;13.68;82.23;98871.30;1732370;81;21094;-68
2021/09/02 01:52:51;;;;;;;7.55;5.05;;;;;;;13.67;82.35;98868.29;1732191;82;21036;-68
2021/09/02 01:55:24;;;;;;;6.10;4.05;;;;;;;13.68;82.39;98872.69;1728273;82;21059;-68
2021/09/02 01:57:53;;;;;;;10.93;4.85;;;;;;;13.68;82.50;98865.77;1728663;82;21523;-67
2021/09/02 02:00:19;;;;;;;8.35;4.58;;;;;;;13.68;82.59;98870.70;1729629;82;21003;-65
2021/09/02 02:02:46;;;;;;;7.47;5.20;;;;;;;13.67;82.74;98869.67;1731508;82;21019;-69
2021/09/02 02:05:14;;;;;;;7.60;4.30;;;;;;;13.69;82.76;98870.94;1729472;82;21043;-72
2021/09/02 02:07:42;;;;;;;6.80;4.37;;;;;;;13.69;82.70;98868.74;1728774;81;21013;-67
2021/09/02 02:10:16;;;;;;;6.95;4.55;;;;;;;13.69;82.68;98862.63;1706543;82;21031;-66
2021/09/02 02:12:44;;;;;;;7.05;4.78;;;;;;;13.69;82.92;98867.36;1699049;82;21610;-67
2021/09/02 02:15:14;;;;;;;6.67;5.05;;;;;;;13.71;83.08;98876.93;1730630;82;21079;-65
2021/09/02 02:17:42;;;;;;;11.28;5.03;;;;;;;13.73;82.95;98880.72;1730928;82;21107;-66
2021/09/02 02:20:12;;;;;;;7.85;4.30;;;;;;;13.72;83.11;98873.56;1730927;82;21038;-69
2021/09/02 02:22:43;;;;;;;7.33;4.40;;;;;;;13.71;83.34;98880.27;1729268;82;21043;-70
2021/09/02 02:25:13;;;;;;;7.85;4.30;;;;;;;13.72;83.59;98874.38;1728885;81;21547;-68
2021/09/02 02:27:40;;;;;;;7.15;4.33;;;;;;;13.75;83.68;98877.80;1729458;81;21011;-66
2021/09/02 02:30:11;;;;;;;8.45;5.35;;;;;;;13.77;83.88;98877.45;1730147;82;21707;-69
2021/09/02 02:32:37;;;;;;;5.95;4.55;;;;;;;13.79;83.86;98881.23;1719889;82;21023;-70
2021/09/02 02:35:09;;;;;;;12.58;5.53;;;;;;;13.78;84.12;98878.26;1718434;82;21075;-66
2021/09/02 02:37:37;;;;;;;7.53;4.33;;;;;;;13.81;84.36;98881.69;1720147;82;21028;-65
2021/09/02 02:40:06;;;;;;;7.72;4.37;;;;;;;13.82;84.38;98878.56;1718602;82;21059;-68
2021/09/02 02:42:32;;;;;;;7.65;4.92;;;;;;;13.87;84.58;98891.33;1705897;82;21504;-65
2021/09/02 02:44:59;;;;;;;9.98;4.80;;;;;;;13.89;84.62;98885.45;1720492;82;21536;-69
2021/09/02 02:47:26;;;;;;;12.10;5.05;;;;;;;13.92;84.71;98890.27;1718368;82;21083;-66
2021/09/02 02:49:55;;;;;;;9.80;5.95;;;;;;;13.91;84.58;98889.46;1719874;82;21040;-66
2021/09/02 02:52:23;;;;;;;7.03;4.58;;;;;;;13.92;84.70;98887.50;1719435;82;21050;-66
2021/09/02 02:54:55;;;;;;;8.50;6.05;;;;;;;13.95;84.84;98878.48;1722129;82;21079;-69
2021/09/02 02:57:21;;;;;;;6.75;4.70;;;;;;;13.94;84.52;98879.62;1719899;82;21036;-66
2021/09/02 02:59:49;;;;;;;8.65;5.25;;;;;;;13.87;84.67;98879.68;1716497;82;21586;-65
2021/09/02 03:02:17;;;;;;;7.80;4.92;;;;;;;13.82;84.51;98879.13;1720036;82;21066;-68
2021/09/02 03:04:45;;;;;;;7.03;4.83;;;;;;;13.82;84.81;98886.87;1704219;81;22925;-68
2021/09/02 03:07:14;;;;;;;7.30;5.08;;;;;;;13.80;84.66;98880.87;1722280;81;21718;-64
2021/09/02 03:09:44;;;;;;;8.43;4.92;;;;;;;13.80;84.70;98887.02;1720300;82;21082;-67
2021/09/02 03:12:13;;;;;;;7.50;5.40;;;;;;;13.80;84.80;98889.19;1721543;82;21535;-66
2021/09/02 03:14:42;;;;;;;13.05;5.55;;;;;;;13.84;84.92;98888.70;1720392;82;21016;-67
2021/09/02 03:17:12;;;;;;;9.60;5.30;;;;;;;13.90;84.90;98892.59;1719443;82;21107;-66
2021/09/02 03:19:38;;;;;;;8.88;4.62;;;;;;;13.92;84.99;98889.67;1699530;82;21614;-65
2021/09/02 03:22:06;;;;;;;7.53;4.40;;;;;;;13.92;84.75;98889.67;1720394;82;21047;-67
2021/09/02 03:24:33;;;;;;;7.20;4.53;;;;;;;13.94;84.73;98885.16;1718506;82;21004;-65
2021/09/02 03:27:00;;;;;;;7.78;4.20;;;;;;;13.97;84.70;98883.08;1719884;82;21079;-65
2021/09/02 03:29:26;;;;;;;9.80;5.17;;;;;;;13.95;83.99;98882.05;1720361;82;21000;-68
2021/09/02 03:31:52;;;;;;;7.62;4.97;;;;;;;13.89;84.05;98891.78;1720252;82;21479;-67
2021/09/02 03:34:20;;;;;;;8.60;4.53;;;;;;;13.87;84.25;98889.94;1698383;82;21039;-68
2021/09/02 03:36:50;;;;;;;8.75;4.62;;;;;;;13.90;84.22;98889.82;1720416;82;21005;-66
2021/09/02 03:39:16;;;;;;;4.62;3.47;;;;;;;13.91;84.09;98890.84;1720745;82;21110;-65
2021/09/02 03:41:45;;;;;;;7.10;4.03;;;;;;;13.92;83.98;98895.21;1719457;82;21590;-68
2021/09/02 03:44:12;;;;;;;7.03;4.12;;;;;;;13.98;84.04;98897.95;1701449;82;21769;-65
2021/09/02 03:46:41;;;;;;;6.90;3.72;;;;;;;13.99;83.71;98898.73;1698390;82;21047;-65
2021/09/02 03:49:08;;;;;;;8.60;5.05;;;;;;;13.98;83.58;98898.52;1702231;82;21039;-67
2021/09/02 03:51:36;;;;;;;7.15;5.25;;;;;;;13.97;83.48;98901.86;1721359;82;21079;-66
2021/09/02 03:54:03;;;;;;;12.25;4.60;;;;;;;13.96;83.42;98906.38;1719892;82;21077;-65
2021/09/02 03:56:29;;;;;;;12.05;3.90;;;;;;;13.93;83.49;98907.91;1718763;82;21800;-70
2021/09/02 03:58:55;;;;;;;11.43;4.37;;;;;;;13.92;83.39;98911.83;1703421;82;21004;-69
2021/09/02 04:01:22;;;;;;;9.28;4.80;;;;;;;13.93;83.42;98903.76;1722408;81;21609;-67
2021/09/02 04:03:51;;;;;;;13.72;4.58;;;;;;;13.97;83.47;98908.78;1720868;82;21043;-69
2021/09/02 04:06:17;;;;;;;7.35;4.30;;;;;;;14.00;83.26;98913.61;1719000;82;20995;-67
2021/09/02 04:08:44;;;;;;;6.50;4.60;;;;;;;14.01;83.07;98918.58;1719533;82;21980;-68
2021/09/02 04:11:12;;;;;;;8.98;4.75;;;;;;;14.04;83.09;98917.06;1719622;82;21015;-69
2021/09/02 04:13:40;;;;;;;7.83;4.30;;;;;;;14.06;82.92;98921.08;1718861;82;21043;-69
2021/09/02 04:16:09;;;;;;;18.20;5.83;;;;;;;14.05;82.86;98922.82;1721410;81;21552;-70
2021/09/02 04:18:35;;;;;;;13.85;5.95;;;;;;;14.05;82.60;98923.63;1717594;82;21095;-68
2021/09/02 04:21:04;;;;;;;12.50;4.33;;;;;;;14.04;82.67;98927.55;1717137;82;21111;-67
2021/09/02 04:23:36;;;;;;;10.95;4.65;;;;;;;14.06;82.52;98929.95;1702935;82;21054;-68
2021/09/02 04:26:03;;;;;;;7.47;3.35;;;;;;;13.99;81.74;98929.20;1711500;82;21114;-69
2021/09/02 04:28:29;;;;;;;13.58;4.55;;;;;;;13.95;81.97;98931.09;1719662;82;21036;-70
2021/09/02 04:30:56;;;;;;;9.28;4.65;;;;;;;13.93;81.81;98930.64;1721392;81;21032;-70
2021/09/02 04:33:24;;;;;;;9.90;5.05;;;;;;;13.92;81.96;98933.98;1705695;82;21871;-65
2021/09/02 04:35:50;;;;;;;9.18;4.37;;;;;;;13.95;82.02;98929.70;1720402;81;21511;-69
2021/09/02 04:38:21;;;;;;;8.78;4.45;;;;;;;13.95;81.90;98934.67;1707066;82;21072;-69
2021/09/02 04:40:48;;;;;;;9.18;5.00;;;;;;;13.94;81.60;98925.31;1706272;82;21035;-66
2021/09/02 04:43:15;;;;;;;7.75;4.37;;;;;;;13.91;81.62;98930.19;1706437;82;21051;-67
2021/09/02 04:45:41;;;;;;;8.65;4.65;;;;;;;13.89;81.57;98929.77;1706700;82;22074;-69
2021/09/02 04:48:14;;;;;;;9.30;4.47;;;;;;;13.89;81.73;98928.38;1706244;82;21063;-67
2021/09/02 04:50:43;;;;;;;8.25;4.55;;;;;;;13.91;81.70;98932.95;1707462;81;21114;-68
2021/09/02 04:53:11;;;;;;;12.20;4.33;;;;;;;13.89;81.44;98933.31;1706125;82;21114;-65
2021/09/02 04:55:37;;;;;;;12.25;4.75;;;;;;;13.91;81.52;98932.95;1718210;82;21631;-69
2021/09/02 04:58:08;;;;;;;9.75;5.10;;;;;;;13.93;81.22;98936.17;1725740;82;21678;-68
2021/09/02 05:00:37;;;;;;;8.48;4.85;;;;;;;13.93;80.98;98939.76;1718352;82;21023;-69
2021/09/02 05:03:08;;;;;;;9.80;5.53;;;;;;;13.92;81.34;98940.91;1720337;82;21059;-65
2021/09/02 05:05:36;;;;;;;9.50;4.85;;;;;;;13.91;81.11;98939.88;1718496;82;21086;-65
2021/09/02 05:08:04;;;;;;;8.65;4.80;;;;;;;13.84;81.00;98946.85;1720506;82;21110;-64
2021/09/02 05:10:30;;;;;;;10.60;6.22;;;;;;;13.81;80.96;98939.83;1724091;82;21508;-67
2021/09/02 05:12:57;;;;;;;11.43;5.90;;;;;;;13.79;81.12;98940.77;1710072;82;21520;-68
2021/09/02 05:15:25;;;;;;;10.25;5.92;;;;;;;13.77;81.00;98946.66;1714726;82;21582;-68
2021/09/02 05:17:53;;;;;;;9.20;4.78;;;;;;;13.73;81.14;98952.70;1721234;82;21062;-66
2021/09/02 05:20:25;;;;;;;15.08;4.72;;;;;;;13.71;81.26;98947.52;1722538;81;21078;-66
2021/09/02 05:22:55;;;;;;;9.25;4.60;;;;;;;13.75;81.42;98944.25;1718781;82;21989;-70
2021/09/02 05:25:22;;;;;;;6.42;4.20;;;;;;;13.81;81.29;98933.73;1721644;82;21516;-67
2021/09/02 05:27:48;;;;;;;8.05;4.15;;;;;;;13.83;80.97;98934.75;1719674;82;21520;-70
2021/09/02 05:30:15;;;;;;;11.00;4.90;;;;;;;13.81;80.77;98924.61;1718926;82;21051;-69
2021/09/02 05:32:44;;;;;;;7.50;3.87;;;;;;;13.83;81.03;98930.59;1719850;82;21575;-67
2021/09/02 05:35:10;;;;;;;9.58;4.65;;;;;;;13.87;80.33;98934.24;1719970;82;21096;-72
2021/09/02 05:37:37;;;;;;;7.05;4.42;;;;;;;13.87;80.38;98940.59;1720816;82;21070;-67
2021/09/02 05:40:07;;;;;;;7.12;4.35;;;;;;;13.94;80.28;98937.77;1721033;82;21497;-66
2021/09/02 05:42:35;;;;;;;11.22;4.92;;;;;;;13.97;80.32;98939.25;1720775;82;22092;-68
2021/09/02 05:45:04;;;;;;;8.75;4.65;;;;;;;14.01;80.00;98936.58;1721979;82;21055;-69
2021/09/02 05:47:30;;;;;;;6.15;3.77;;;;;;;14.04;79.50;98938.62;1720432;82;21768;-66
2021/09/02 05:49:58;;;;;;;9.33;4.53;;;;;;;14.04;78.79;98934.47;1721753;82;21549;-69
2021/09/02 05:52:25;;;;;;;4.83;3.65;;;;;;;14.11;79.11;98936.04;1717166;82;21109;-66
2021/09/02 05:54:54;;;;;;;8.58;4.10;;;;;;;14.25;79.46;98940.31;1719915;82;21075;-66
2021/09/02 05:57:23;;;;;;;10.05;4.65;;;;;;;14.35;78.13;98944.50;1720539;82;21055;-66
2021/09/02 05:59:50;;;;;;;11.20;5.10;;;;;;;14.39;76.50;98935.70;1717142;82;21525;-69
2021/09/02 06:02:19;;;;;;;6.08;4.37;;;;;;;14.39;76.62;98942.63;1725067;81;21032;-66
2021/09/02 06:04:47;;;;;;;8.88;4.60;;;;;;;14.39;76.02;98945.40;1718031;82;21051;-70
2021/09/02 06:07:15;;;;;;;6.35;4.42;;;;;;;14.38;74.70;98955.46;1717374;81;21043;-68
2021/09/02 06:09:42;;;;;;;7.72;4.12;;;;;;;14.35;74.74;98956.39;1709104;82;21094;-68
2021/09/02 06:12:10;;;;;;;8.50;3.98;;;;;;;14.34;74.89;98958.95;1688644;82;21574;-65
2021/09/02 06:14:36;;;;;;;12.93;3.60;;;;;;;14.33;74.59;98954.56;1708511;82;21020;-70
2021/09/02 06:17:04;;;;;;;6.37;3.75;;;;;;;14.31;73.06;98949.95;1712723;82;21047;-64
2021/09/02 06:19:32;;;;;;;6.85;4.08;;;;;;;14.24;72.84;98953.95;1712835;81;21329;-64
2021/09/02 06:21:59;;;;;;;10.78;3.90;;;;;;;14.22;72.60;98959.05;1689535;82;21023;-66
2021/09/02 06:24:25;;;;;;;11.50;4.53;;;;;;;14.19;72.15;98967.48;1728217;82;21992;-66
2021/09/02 06:26:52;;;;;;;9.40;4.28;;;;;;;14.12;73.01;98965.33;1718380;82;21078;-64
2021/09/02 06:29:22;;;;;;;5.08;3.70;;;;;;;14.07;72.39;98971.17;1711048;81;21067;-66
2021/09/02 06:31:48;;;;;;;10.70;3.52;;;;;;;14.04;71.56;98971.08;1719982;81;21067;-65
2021/09/02 06:34:18;;;;;;;8.90;3.58;;;;;;;14.05;72.64;98978.22;1713538;81;21007;-66
2021/09/02 06:36:44;;;;;;;12.37;4.03;;;;;;;14.10;73.14;98978.77;1708951;81;21059;-68
2021/09/02 06:39:12;;;;;;;9.00;3.62;;;;;;;14.19;72.50;98979.95;1697428;82;21047;-65
2021/09/02 06:41:39;;;;;;;9.83;3.67;;;;;;;14.21;70.55;98982.38;1719544;82;21578;-66
2021/09/02 06:44:06;;;;;;;13.53;3.60;;;;;;;14.17;69.85;98974.55;1705934;82;21059;-66
2021/09/02 06:46:34;;;;;;;12.07;3.33;;;;;;;14.12;70.06;98981.95;1705261;83;21115;-66
2021/09/02 06:49:01;;;;;;;8.28;3.02;;;;;;;14.04;70.35;98987.09;1712622;82;21555;-65
2021/09/02 06:51:30;;;;;;;6.30;3.37;;;;;;;14.05;69.63;98984.56;1718058;82;21079;-65
2021/09/02 06:53:56;;;;;;;11.73;3.47;;;;;;;14.06;68.50;98979.23;1701852;82;21075;-64
2021/09/02 06:56:23;;;;;;;7.00;3.72;;;;;;;14.10;67.93;98972.41;1684352;84;21110;-71
2021/09/02 06:58:51;;;;;;;12.15;3.62;;;;;;;14.08;65.34;98985.80;1705230;84;21598;-66
2021/09/02 07:01:17;;;;;;;6.47;3.50;;;;;;;14.08;64.31;98992.16;1709241;82;21579;-66
2021/09/02 07:03:44;;;;;;;4.90;2.70;;;;;;;14.14;64.11;98987.16;1705019;84;21005;-69
2021/09/02 07:06:11;;;;;;;6.35;2.75;;;;;;;14.27;63.71;98993.41;1706549;82;21513;-69
2021/09/02 07:08:39;;;;;;;5.70;2.50;;;;;;;14.41;61.91;98981.06;1705850;82;21515;-71
2021/09/02 07:11:09;;;;;;;7.95;2.58;;;;;;;14.48;56.79;98997.87;1706037;82;21055;-67
2021/09/02 07:13:37;;;;;;;17.32;3.22;;;;;;;14.54;55.95;99006.70;1684430;84;21714;-67
2021/09/02 07:16:04;;;;;;;6.03;2.20;;;;;;;14.60;55.00;99013.59;1715446;82;21059;-67
2021/09/02 07:18:32;;;;;;;9.85;2.62;;;;;;;14.60;52.91;99009.44;1718297;82;21126;-68
2021/09/02 07:20:59;;;;;;;5.05;2.17;;;;;;;14.59;53.96;99010.58;1719840;82;21048;-66
2021/09/02 07:23:26;;;;;;;4.83;2.27;;;;;;;14.55;55.40;99016.03;1701803;83;21081;-69
2021/09/02 07:25:56;;;;;;;5.30;2.37;;;;;;;14.56;54.58;99001.03;1651100;86;21232;-68
2021/09/02 07:28:24;;;;;;;10.03;2.60;;;;;;;14.69;56.17;99003.67;1653355;85;21126;-67
2021/09/02 07:30:52;;;;;;;10.30;2.65;;;;;;;14.85;53.75;98998.13;1656053;85;21131;-66
2021/09/02 07:33:18;;;;;;;7.42;2.20;;;;;;;14.98;54.13;98998.02;1642150;85;21090;-67
2021/09/02 07:35:44;;;;;;;10.23;2.45;;;;;;;15.06;51.58;98996.41;1674278;85;21541;-69
2021/09/02 07:38:12;;;;;;;7.47;2.67;;;;;;;15.10;51.70;99013.13;1673654;85;21557;-66
2021/09/02 07:40:40;;;;;;;5.92;2.75;;;;;;;15.00;52.21;98997.05;1673666;85;21103;-70
2021/09/02 07:43:06;;;;;;;13.80;3.02;;;;;;;14.93;51.21;98999.90;1674092;85;21574;-68
2021/09/02 07:45:34;;;;;;;8.25;2.35;;;;;;;14.83;51.49;99012.37;1673876;85;21048;-67
2021/09/02 07:48:00;;;;;;;5.80;2.83;;;;;;;14.77;51.67;99001.31;1677808;85;21088;-71
2021/09/02 07:50:27;;;;;;;4.37;2.40;;;;;;;14.80;52.09;99003.93;1673747;85;21063;-66
2021/09/02 07:52:54;;;;;;;6.03;1.77;;;;;;;14.89;51.39;99000.99;1661310;85;21024;-65
2021/09/02 07:55:20;;;;;;;10.30;2.47;;;;;;;14.97;53.54;99004.14;1633310;87;21132;-68
2021/09/02 07:57:49;;;;;;;5.12;2.33;;;;;;;15.12;53.33;99008.60;1698702;82;21080;-66
2021/09/02 08:00:19;;;;;;;10.75;2.90;;;;;;;15.09;51.32;99007.38;1696734;83;21087;-67
2021/09/02 08:02:46;;;;;;;7.47;1.77;;;;;;;15.00;52.03;99003.41;1695639;83;21139;-64
2021/09/02 08:05:13;;;;;;;12.07;2.60;;;;;;;14.92;51.45;99015.52;1694905;83;21307;-65
2021/09/02 08:07:51;;;;;;;6.62;2.12;;;;;;;14.84;49.87;99009.80;1706846;83;21027;-70
2021/09/02 08:10:21;;;;;;;8.83;2.20;;;;;;;14.82;51.69;99007.97;1710225;83;21100;-69
2021/09/02 08:12:49;;;;;;;8.60;2.08;;;;;;;14.93;49.95;99000.47;1708322;83;21594;-66
2021/09/02 08:15:17;;;;;;;12.55;2.75;;;;;;;15.01;51.50;99002.23;1679534;83;21083;-70
2021/09/02 08:17:46;;;;;;;8.50;2.27;;;;;;;15.13;50.48;99000.52;1707131;83;21043;-66
2021/09/02 08:20:14;;;;;;;7.03;2.15;;;;;;;15.20;51.27;99009.78;1706398;83;21100;-65
2021/09/02 08:22:44;;;;;;;8.13;2.35;;;;;;;15.20;49.94;99002.03;1701754;82;21040;-67
2021/09/02 08:25:11;;;;;;;9.35;2.62;;;;;;;15.21;50.71;98990.59;1694505;83;21082;-64
2021/09/02 08:27:40;;;;;;;11.57;2.65;;;;;;;15.35;51.45;98993.44;1696228;83;21000;-70
2021/09/02 08:30:08;;;;;;;11.35;2.95;;;;;;;15.52;49.92;98989.42;1696465;83;21072;-65
2021/09/02 08:32:34;;;;;;;6.30;1.80;;;;;;;15.65;49.92;98998.38;1709448;81;21066;-71
2021/09/02 08:35:03;;;;;;;5.65;2.30;;;;;;;15.84;50.75;99004.27;1737986;81;21070;-69
2021/09/02 08:37:31;;;;;;;7.37;2.42;;;;;;;16.00;50.60;98997.25;1738605;81;21415;-71
2021/09/02 08:39:59;;;;;;;5.05;2.00;;;;;;;16.03;49.61;99002.06;1732894;81;22609;-64
2021/09/02 08:42:26;;;;;;;6.17;2.40;;;;;;;15.95;50.37;99001.08;1700539;81;21057;-67
2021/09/02 08:44:55;;;;;;;9.10;2.52;;;;;;;15.92;49.75;99003.22;1728516;81;21082;-64
2021/09/02 08:47:23;;;;;;;3.33;1.80;;;;;;;15.82;50.58;98997.11;1723433;81;21625;-70
2021/09/02 08:49:51;;;;;;;10.05;1.82;;;;;;;15.84;48.21;98993.16;1696540;81;21143;-66
2021/09/02 08:52:20;;;;;;;5.28;2.20;;;;;;;15.88;49.86;99006.53;1688800;81;21205;-69
2021/09/02 08:54:48;;;;;;;7.58;2.52;;;;;;;15.92;50.34;98994.87;1706531;81;21030;-69
2021/09/02 08:57:15;;;;;;;9.28;2.22;;;;;;;15.99;50.46;98990.06;1736340;81;21042;-69
2021/09/02 08:59:41;;;;;;;8.83;1.87;;;;;;;15.90;48.46;98995.86;1739204;81;21046;-65
2021/09/02 09:02:29;;;;;;;6.97;2.35;;;;;;;15.76;49.48;98997.17;1710490;81;21550;-68
2021/09/02 09:05:13;;;;;;;8.35;1.98;;;;;;;15.77;49.52;99003.55;1733719;81;21158;-68
2021/09/02 09:07:46;;;;;;;3.95;1.77;;;;;;;15.85;49.82;98997.55;1728418;81;21086;-65
2021/09/02 09:10:22;;;;;;;8.95;2.08;;;;;;;16.01;50.93;98998.84;1712657;83;21129;-67
2021/09/02 09:12:53;;;;;;;7.37;1.67;;;;;;;16.15;48.70;99004.66;1735863;81;21081;-65
2021/09/02 09:15:38;;;;;;;10.68;2.15;;;;;;;16.14;48.83;99012.77;1735582;81;21499;-67
2021/09/02 09:18:23;;;;;;;7.65;1.98;;;;;;;15.98;49.02;99003.73;1736159;81;22128;-65
2021/09/02 09:21:17;;;;;;;6.53;2.23;;;;;;;15.96;50.80;98997.15;1716245;81;22102;-74
2021/09/02 09:24:04;;;;;;;9.38;2.40;;;;;;;16.09;50.59;99006.12;1738869;81;21718;-68
2021/09/02 09:26:32;;;;;;;7.20;1.95;;;;;;;16.26;50.30;99002.63;1730842;81;21046;-70
2021/09/02 09:29:01;;;;;;;8.43;2.52;;;;;;;16.38;48.78;99002.45;1736025;81;21129;-69
2021/09/02 09:31:47;;;;;;;7.15;2.02;;;;;;;16.35;49.41;99007.94;1729690;81;21116;-68
2021/09/02 09:34:15;;;;;;;5.35;1.80;;;;;;;16.30;49.09;99025.73;1709451;82;21052;-67
2021/09/02 09:36:42;;;;;;;5.40;2.20;;;;;;;16.28;45.95;99008.63;1718211;82;21555;-68
2021/09/02 09:39:14;;;;;;;6.40;2.52;;;;;;;16.16;46.33;99017.95;1720216;82;21020;-67
2021/09/02 09:41:47;;;;;;;7.05;2.15;;;;;;;16.03;46.39;99014.56;1721219;82;21513;-67
2021/09/02 09:44:24;;;;;;;4.35;2.27;;;;;;;15.94;46.13;99005.05;1719914;82;21186;-69
2021/09/02 09:47:17;;;;;;;8.00;2.40;;;;;;;15.92;47.38;99017.92;1718319;82;21020;-68
2021/09/02 09:49:56;;;;;;;5.80;1.80;;;;;;;15.85;47.32;99020.55;1716859;81;21067;-68
2021/09/02 09:52:31;;;;;;;5.08;1.87;;;;;;;15.73;46.05;99015.97;1699868;83;21627;-70
2021/09/02 09:55:12;;;;;;;8.55;2.45;;;;;;;15.60;47.68;99027.83;1720072;82;21003;-70
2021/09/02 09:57:41;;;;;;;10.98;2.37;;;;;;;15.62;47.17;99024.11;1715601;82;22165;-71
2021/09/02 10:00:26;;;;;;;5.97;2.05;;;;;;;15.69;47.03;99020.67;1719431;82;21016;-66
2021/09/02 10:02:53;;;;;;;8.10;2.22;;;;;;;15.81;48.54;99019.70;1719146;82;21571;-65
2021/09/02 10:05:21;;;;;;;5.55;1.90;;;;;;;15.96;50.10;99026.32;1701273;82;21598;-69
2021/09/02 10:07:50;;;;;;;14.18;2.10;;;;;;;16.15;49.42;99023.31;1718164;82;21063;-65
2021/09/02 10:10:17;;;;;;;6.58;2.20;;;;;;;16.22;47.57;99022.62;1715818;82;21086;-66
2021/09/02 10:12:48;;;;;;;9.85;2.05;;;;;;;16.21;47.04;99025.98;1708463;82;21063;-63
2021/09/02 10:15:17;;;;;;;11.80;2.27;;;;;;;16.19;46.40;99032.49;1713102;82;21547;-66
2021/09/02 10:17:47;;;;;;;5.17;2.00;;;;;;;16.10;47.20;99048.05;1713457;82;20980;-64
2021/09/02 10:20:24;;;;;;;7.08;1.77;;;;;;;15.98;46.80;99033.70;1712660;82;21029;-66
2021/09/02 10:22:56;;;;;;;8.40;2.50;;;;;;;16.04;46.67;99034.22;1714463;82;21792;-64
2021/09/02 10:25:37;;;;;;;5.20;2.10;;;;;;;16.14;47.15;99028.62;1683091;82;21071;-67
2021/09/02 10:28:17;;;;;;;5.25;1.85;;;;;;;16.11;46.07;99030.19;1714027;82;21599;-67
2021/09/02 10:30:48;;;;;;;6.72;2.35;;;;;;;15.99;45.16;99033.94;1706017;82;22145;-66
2021/09/02 10:33:44;;;;;;;9.25;2.45;;;;;;;15.76;45.56;99044.99;1725785;82;21588;-66
2021/09/02 10:36:19;;;;;;;7.92;2.62;;;;;;;15.62;46.74;99037.99;1721017;82;22056;-65
2021/09/02 10:38:57;;;;;;;7.05;2.50;;;;;;;15.50;47.22;99050.05;1733840;82;20992;-68
2021/09/02 10:41:44;;;;;;;12.10;2.62;;;;;;;15.35;47.51;99061.44;1734166;82;21063;-67
2021/09/02 10:44:17;;;;;;;6.87;2.50;;;;;;;15.20;47.49;99061.69;1730375;82;21098;-71
2021/09/02 10:46:45;;;;;;;11.43;2.42;;;;;;;14.98;48.67;99082.02;1692108;82;21047;-67
2021/09/02 10:49:21;;;;;;;4.92;2.20;;;;;;;14.88;50.10;99061.19;1711865;82;21554;-67
2021/09/02 10:51:56;;;;;;;21.07;2.45;;;;;;;14.80;50.72;99061.63;1725806;82;21551;-69
2021/09/02 10:54:37;;;;;;;7.42;2.33;;;;;;;14.87;51.77;99073.47;1725189;82;21094;-69
2021/09/02 10:57:13;;;;;;;4.80;2.00;;;;;;;15.02;50.83;99070.44;1716310;82;21607;-67
2021/09/02 10:59:52;;;;;;;3.52;1.80;;;;;;;15.32;50.86;99075.45;1700698;82;21091;-68
2021/09/02 11:02:28;;;;;;;6.55;2.60;;;;;;;15.68;51.49;99072.61;1712705;82;21539;-67
2021/09/02 11:05:06;;;;;;;10.13;1.90;;;;;;;15.97;50.25;99075.75;1705588;82;21004;-69
2021/09/02 11:07:47;;;;;;;6.97;2.10;;;;;;;16.00;47.33;99081.38;1717006;82;21031;-70
2021/09/02 11:10:20;;;;;;;5.47;1.92;;;;;;;15.94;48.50;99100.89;1716646;82;21020;-69
2021/09/02 11:13:01;;;;;;;5.30;1.82;;;;;;;15.71;47.44;99128.02;1729891;81;21042;-68
2021/09/02 11:15:31;;;;;;;3.85;2.00;;;;;;;15.38;48.63;99100.95;1724493;81;21047;-69
2021/09/02 11:18:03;;;;;;;3.77;1.90;;;;;;;15.22;49.90;99100.98;1736584;81;21067;-69
2021/09/02 11:20:32;;;;;;;8.10;2.30;;;;;;;15.08;50.09;99094.55;1721396;82;21060;-69
2021/09/02 11:23:20;;;;;;;5.92;1.85;;;;;;;15.05;50.33;99109.94;1719863;82;21516;-68
2021/09/02 11:25:51;;;;;;;3.77;1.80;;;;;;;15.06;49.82;99096.88;1697896;82;21551;-69
2021/09/02 11:28:22;;;;;;;4.87;1.95;;;;;;;15.10;48.83;99099.13;1711932;82;21126;-68
2021/09/02 11:30:50;;;;;;;5.97;2.30;;;;;;;15.13;47.58;99099.79;1717923;82;21039;-68
2021/09/02 11:33:17;;;;;;;5.20;1.80;;;;;;;15.12;47.07;99105.70;1719905;82;21626;-70
2021/09/02 11:35:59;;;;;;;4.40;2.15;;;;;;;15.26;47.17;99104.66;1720689;82;21134;-70
2021/09/02 11:38:26;;;;;;;5.35;2.10;;;;;;;15.50;49.05;99088.91;1693030;82;21083;-67
2021/09/02 11:40:54;;;;;;;7.72;2.47;;;;;;;15.72;46.57;99094.09;1721324;81;21503;-70
2021/09/02 11:43:20;;;;;;;9.25;1.70;;;;;;;15.85;47.09;99094.77;1720037;82;21102;-69